Time,TemperatureF,DewpointF,PressureIn,WindDirection,WindDirectionDegrees,WindSpeedMPH,WindSpeedGustMPH,Humidity,HourlyPrecipIn,Conditions,Clouds,dailyrainin,SoftwareType,DateUTC
2013-03-31 13:00:00,51.5,30.7,29.67,SSW,203,4.0,4.0,45,0.00,,,0.00,WUHU216HW,2013-03-31 17:00:00,
2013-03-31 13:05:00,51.7,30.3,29.67,SSW,203,3.1,4.7,44,0.00,,,0.00,WUHU216HW,2013-03-31 17:05:00,
2013-03-31 13:10:00,51.7,30.3,29.67,SSW,203,3.1,4.7,44,0.00,,,0.00,WUHU216HW,2013-03-31 17:10:00,
2013-03-31 13:31:00,54.7,32.0,29.65,SSW,203,5.1,5.1,42,0.00,,,0.00,WUHU216HW,2013-03-31 17:31:00,
2013-03-31 13:32:00,54.7,32.0,29.65,SSW,203,5.1,5.1,42,0.00,,,0.00,WUHU216HW,2013-03-31 17:32:00,
2013-03-31 13:36:00,54.7,32.0,29.65,SSW,203,5.1,5.1,42,0.00,,,0.00,WUHU216HW,2013-03-31 17:36:00,
2013-03-31 13:37:00,54.7,32.0,29.65,SSW,203,5.1,5.1,42,0.00,,,0.00,WUHU216HW,2013-03-31 17:37:00,
2013-03-31 14:00:00,55.1,31.1,29.63,SSW,203,2.2,2.2,40,0.00,,,0.00,WUHU216HW,2013-03-31 18:00:00,
2013-03-31 14:05:00,55.1,31.1,29.63,SSW,203,2.2,2.2,40,0.00,,,0.00,WUHU216HW,2013-03-31 18:05:00,
2013-03-31 14:30:00,54.4,33.8,29.63,SSW,203,10.7,10.7,46,0.00,,,0.00,WUHU216HW,2013-03-31 18:30:00,
2013-03-31 14:35:00,54.4,33.8,29.63,SSW,203,10.7,10.7,46,0.00,,,0.00,WUHU216HW,2013-03-31 18:35:00,
2013-03-31 14:59:00,52.6,34.9,29.62,SSW,203,6.0,6.0,51,0.01,,,0.00,WUHU216HW,2013-03-31 18:59:00,
2013-03-31 15:00:00,52.6,34.9,29.62,SSW,203,6.0,6.0,51,0.01,,,0.00,WUHU216HW,2013-03-31 19:00:00,
2013-03-31 15:05:00,52.6,34.9,29.62,SSW,203,6.0,6.0,51,0.01,,,0.00,WUHU216HW,2013-03-31 19:05:00,
2013-03-31 15:30:00,50.0,34.0,29.62,WSW,248,6.0,6.0,54,0.00,,,0.00,WUHU216HW,2013-03-31 19:30:00,
2013-03-31 15:35:00,50.0,34.0,29.62,WSW,248,6.0,6.0,54,0.00,,,0.00,WUHU216HW,2013-03-31 19:35:00,
2013-03-31 15:36:00,50.0,34.0,29.62,WSW,248,6.0,6.0,54,0.00,,,0.00,WUHU216HW,2013-03-31 19:36:00,
2013-03-31 15:59:00,49.7,30.8,29.61,WSW,248,3.4,3.4,48,0.00,,,0.00,WUHU216HW,2013-03-31 19:59:00,
2013-03-31 16:00:00,49.7,30.8,29.61,WSW,248,3.4,3.4,48,0.00,,,0.00,WUHU216HW,2013-03-31 20:00:00,
2013-03-31 16:04:00,49.7,30.8,29.61,WSW,248,3.4,3.4,48,0.00,,,0.00,WUHU216HW,2013-03-31 20:04:00,
2013-03-31 16:05:00,49.7,30.8,29.61,WSW,248,3.4,3.4,48,0.00,,,0.00,WUHU216HW,2013-03-31 20:05:00,
2013-03-31 16:30:00,49.5,32.6,29.60,WNW,293,1.8,1.8,52,0.00,,,0.00,WUHU216HW,2013-03-31 20:30:00,
2013-03-31 16:35:00,49.5,32.6,29.60,WNW,293,1.8,1.8,52,0.00,,,0.00,WUHU216HW,2013-03-31 20:35:00,
2013-03-31 17:00:00,48.6,29.2,29.59,WNW,293,1.6,1.6,47,0.00,,,0.00,WUHU216HW,2013-03-31 21:00:00,
2013-03-31 17:05:00,48.6,29.2,29.59,WNW,293,1.6,1.6,47,0.00,,,0.00,WUHU216HW,2013-03-31 21:05:00,
2013-03-31 17:30:00,47.7,27.3,29.58,West,270,0.4,0.4,45,0.00,,,0.00,WUHU216HW,2013-03-31 21:30:00,
2013-03-31 17:35:00,47.7,27.3,29.58,West,270,0.4,0.4,45,0.00,,,0.00,WUHU216HW,2013-03-31 21:35:00,
2013-03-31 17:59:00,46.8,26.5,29.57,SSW,203,0.7,0.7,45,0.00,,,0.00,WUHU216HW,2013-03-31 21:59:00,
2013-03-31 18:00:00,46.8,26.5,29.57,SSW,203,0.7,0.7,45,0.00,,,0.00,WUHU216HW,2013-03-31 22:00:00,
2013-03-31 18:05:00,46.8,26.5,29.57,SSW,203,0.7,0.7,45,0.00,,,0.00,WUHU216HW,2013-03-31 22:05:00,
2013-03-31 18:48:00,47.2,27.3,29.56,SSW,203,3.6,3.6,46,0.00,,,0.00,WUHU216HW,2013-03-31 22:48:00,
2013-03-31 18:49:00,47.2,27.3,29.56,SSW,203,3.6,3.6,46,0.00,,,0.00,WUHU216HW,2013-03-31 22:49:00,
2013-03-31 18:53:00,47.2,27.8,29.56,SSW,203,3.4,5.4,47,0.00,,,0.00,WUHU216HW,2013-03-31 22:53:00,
2013-03-31 18:54:00,47.2,27.8,29.56,SSW,203,1.3,5.4,47,0.00,,,0.00,WUHU216HW,2013-03-31 22:54:00,
2013-03-31 18:59:00,47.2,27.3,29.55,SSW,203,2.5,5.4,46,0.00,,,0.00,WUHU216HW,2013-03-31 22:59:00,
2013-03-31 19:04:00,47.0,27.6,29.56,SSW,203,4.5,4.5,47,0.00,,,0.00,WUHU216HW,2013-03-31 23:04:00,
2013-03-31 19:05:00,47.0,27.1,29.55,North,0,4.9,4.9,46,0.00,,,0.00,WUHU216HW,2013-03-31 23:05:00,
2013-03-31 19:09:00,46.8,26.5,29.55,SSW,203,2.0,4.9,45,0.00,,,0.00,WUHU216HW,2013-03-31 23:09:00,
2013-03-31 19:10:00,46.8,26.5,29.55,SSW,203,1.1,4.9,45,0.00,,,0.00,WUHU216HW,2013-03-31 23:10:00,
2013-03-31 19:14:00,46.8,27.0,29.55,SSW,203,3.1,7.4,46,0.00,,,0.00,WUHU216HW,2013-03-31 23:14:00,
2013-03-31 19:15:00,46.8,27.0,29.55,SSW,203,4.7,7.4,46,0.00,,,0.00,WUHU216HW,2013-03-31 23:15:00,
2013-03-31 19:19:00,46.8,27.0,29.54,SSW,203,2.5,7.4,46,0.00,,,0.00,WUHU216HW,2013-03-31 23:19:00,
2013-03-31 19:20:00,46.8,27.0,29.54,North,0,4.7,7.4,46,0.00,,,0.00,WUHU216HW,2013-03-31 23:20:00,
2013-03-31 19:24:00,46.6,26.8,29.54,SSW,203,3.8,5.4,46,0.00,,,0.00,WUHU216HW,2013-03-31 23:24:00,
2013-03-31 19:25:00,46.6,26.8,29.54,SSW,203,3.6,4.7,46,0.00,,,0.00,WUHU216HW,2013-03-31 23:25:00,
2013-03-31 19:29:00,46.6,26.8,29.54,SSW,203,3.1,4.7,46,0.00,,,0.00,WUHU216HW,2013-03-31 23:29:00,
2013-03-31 19:30:00,46.6,26.8,29.54,SSW,203,2.5,4.7,46,0.00,,,0.00,WUHU216HW,2013-03-31 23:30:00,
2013-03-31 19:34:00,46.4,26.6,29.54,SSW,203,4.0,4.7,46,0.00,,,0.00,WUHU216HW,2013-03-31 23:34:00,
2013-03-31 19:35:00,46.4,27.2,29.54,SSW,203,3.1,4.7,47,0.00,,,0.00,WUHU216HW,2013-03-31 23:35:00,
2013-03-31 19:40:00,46.4,26.1,29.53,North,0,2.5,4.5,45,0.00,,,0.00,WUHU216HW,2013-03-31 23:40:00,
2013-03-31 19:45:00,46.3,25.4,29.53,North,0,1.8,6.7,44,0.00,,,0.00,WUHU216HW,2013-03-31 23:45:00,
2013-03-31 19:50:00,46.1,24.1,29.53,North,0,4.7,6.7,42,0.00,,,0.00,WUHU216HW,2013-03-31 23:50:00,
2013-03-31 19:55:00,45.7,21.4,29.53,SSW,203,6.3,7.4,38,0.00,,,0.00,WUHU216HW,2013-03-31 23:55:00,
2013-03-31 19:56:00,45.7,22.1,29.53,SSW,203,4.5,7.4,39,0.00,,,0.00,WUHU216HW,2013-03-31 23:56:00,
2013-03-31 20:00:00,45.7,22.1,29.53,North,0,1.1,7.4,39,0.00,,,0.00,WUHU216HW,2013-04-01 00:00:00,
2013-03-31 20:01:00,45.5,21.2,29.53,SSW,203,2.5,7.4,38,0.00,,,0.00,WUHU216HW,2013-04-01 00:01:00,
2013-03-31 20:05:00,45.4,19.1,29.53,SSW,203,5.4,8.5,35,0.00,,,0.00,WUHU216HW,2013-04-01 00:05:00,
2013-03-31 20:06:00,45.4,19.1,29.53,SSW,203,2.5,8.5,35,0.00,,,0.00,WUHU216HW,2013-04-01 00:06:00,
2013-03-31 20:10:00,45.2,20.3,29.53,SSW,203,0.9,8.5,37,0.00,,,0.00,WUHU216HW,2013-04-01 00:10:00,
2013-03-31 20:11:00,45.0,17.5,29.53,SSW,203,3.4,8.5,33,0.00,,,0.00,WUHU216HW,2013-04-01 00:11:00,
2013-03-31 20:15:00,44.8,16.7,29.53,SSW,203,2.5,8.5,32,0.00,,,0.00,WUHU216HW,2013-04-01 00:15:00,
2013-03-31 20:17:00,44.8,14.4,29.53,SSW,203,7.4,8.5,29,0.00,,,0.00,WUHU216HW,2013-04-01 00:17:00,
2013-03-31 20:20:00,44.6,12.4,29.53,SSW,203,2.5,8.5,27,0.01,,,0.02,WUHU216HW,2013-04-01 00:20:00,
2013-03-31 20:22:00,44.6,12.4,29.53,SSW,203,3.8,8.5,27,0.01,,,0.02,WUHU216HW,2013-04-01 00:22:00,
2013-03-31 20:25:00,44.3,8.5,29.53,SSW,203,5.8,8.5,23,0.01,,,0.02,WUHU216HW,2013-04-01 00:25:00,
2013-03-31 20:26:00,44.3,8.5,29.53,SSW,203,4.7,8.5,23,0.01,,,0.02,WUHU216HW,2013-04-01 00:26:00,
2013-03-31 20:27:00,44.3,9.4,29.53,SSW,203,2.0,7.4,24,0.01,,,0.02,WUHU216HW,2013-04-01 00:27:00,
2013-03-31 20:28:00,44.3,9.4,29.53,SSW,203,3.6,7.4,24,0.01,,,0.02,WUHU216HW,2013-04-01 00:28:00,
2013-03-31 20:30:00,44.3,7.6,29.53,North,0,3.4,5.8,22,0.01,,,0.02,WUHU216HW,2013-04-01 00:30:00,
2013-03-31 20:31:00,44.1,6.6,29.53,SSW,203,5.4,6.7,21,0.01,,,0.02,WUHU216HW,2013-04-01 00:31:00,
2013-03-31 20:32:00,44.1,8.4,29.53,SSW,203,1.8,6.7,23,0.01,,,0.02,WUHU216HW,2013-04-01 00:32:00,
2013-03-31 20:33:00,44.1,9.3,29.53,SSW,203,2.5,6.7,24,0.01,,,0.02,WUHU216HW,2013-04-01 00:33:00,
2013-03-31 20:36:00,43.9,5.5,29.53,SSW,203,5.8,6.7,20,0.01,,,0.02,WUHU216HW,2013-04-01 00:36:00,
2013-03-31 20:37:00,43.9,2.5,29.53,North,0,3.1,6.7,18,0.01,,,0.02,WUHU216HW,2013-04-01 00:37:00,
2013-03-31 20:38:00,43.9,1.1,29.53,SSW,203,5.4,6.7,17,0.01,,,0.02,WUHU216HW,2013-04-01 00:38:00,
2013-03-31 20:41:00,43.7,2.3,29.53,SSW,203,3.4,6.3,18,0.01,,,0.02,WUHU216HW,2013-04-01 00:41:00,
2013-03-31 20:42:00,43.7,0.9,29.53,SSW,203,5.1,6.3,17,0.01,,,0.02,WUHU216HW,2013-04-01 00:42:00,
2013-03-31 20:43:00,43.7,0.9,29.53,North,0,4.7,6.3,17,0.01,,,0.02,WUHU216HW,2013-04-01 00:43:00,
2013-03-31 20:46:00,43.6,-2.1,29.53,North,0,1.8,5.8,15,0.01,,,0.02,WUHU216HW,2013-04-01 00:46:00,
2013-03-31 20:47:00,43.6,-2.1,29.53,SSW,203,1.6,5.4,15,0.02,,,0.03,WUHU216HW,2013-04-01 00:47:00,
2013-03-31 20:48:00,43.6,-2.1,29.53,SSW,203,1.8,5.1,15,0.02,,,0.03,WUHU216HW,2013-04-01 00:48:00,
2013-03-31 20:51:00,43.6,-5.1,29.53,SSW,203,4.0,5.1,13,0.02,,,0.03,WUHU216HW,2013-04-01 00:51:00,
2013-03-31 20:52:00,43.6,-3.6,29.53,SSW,203,2.9,5.1,14,0.02,,,0.03,WUHU216HW,2013-04-01 00:52:00,
2013-03-31 20:53:00,43.4,-8.2,29.53,SSW,203,2.5,4.9,11,0.02,,,0.03,WUHU216HW,2013-04-01 00:53:00,
2013-03-31 20:56:00,43.4,-2.3,29.54,SSW,203,3.4,6.0,15,0.02,,,0.03,WUHU216HW,2013-04-01 00:56:00,
2013-03-31 20:58:00,43.2,-9.8,29.53,SSW,203,1.1,6.0,10,0.02,,,0.03,WUHU216HW,2013-04-01 00:58:00,
2013-03-31 21:02:00,43.0,-7.0,29.54,SSW,203,1.1,6.0,12,0.02,,,0.03,WUHU216HW,2013-04-01 01:02:00,
2013-03-31 21:03:00,43.0,-4.1,29.54,SSW,203,1.1,6.0,14,0.02,,,0.03,WUHU216HW,2013-04-01 01:03:00,
2013-03-31 21:04:00,43.0,-9.9,29.54,SSW,203,1.8,6.0,9,0.02,,,0.03,WUHU216HW,2013-04-01 01:04:00,
2013-03-31 21:07:00,42.8,-10.1,29.54,SSW,203,0.7,5.8,7,0.02,,,0.03,WUHU216HW,2013-04-01 01:07:00,
2013-03-31 21:08:00,42.8,-10.1,29.54,SSW,203,0.4,5.8,10,0.02,,,0.03,WUHU216HW,2013-04-01 01:08:00,
2013-03-31 21:09:00,42.8,-10.1,29.54,SSW,203,1.8,5.8,10,0.02,,,0.03,WUHU216HW,2013-04-01 01:09:00,
2013-03-31 21:13:00,42.7,-10.2,29.54,North,0,2.5,3.8,9,0.03,,,0.04,WUHU216HW,2013-04-01 01:13:00,
2013-03-31 21:14:00,42.7,-10.2,29.54,North,0,4.7,5.4,7,0.03,,,0.04,WUHU216HW,2013-04-01 01:14:00,
2013-03-31 21:18:00,42.5,-10.3,29.54,North,0,2.0,5.4,7,0.02,,,0.04,WUHU216HW,2013-04-01 01:18:00,
2013-03-31 21:19:00,42.5,-10.3,29.54,North,0,0.7,5.4,7,0.02,,,0.04,WUHU216HW,2013-04-01 01:19:00,
2013-03-31 21:23:00,42.3,-10.4,29.54,SSW,203,0.4,5.4,9,0.02,,,0.04,WUHU216HW,2013-04-01 01:23:00,
2013-03-31 21:24:00,42.3,-10.4,29.54,SSW,203,0.4,4.7,7,0.02,,,0.04,WUHU216HW,2013-04-01 01:24:00,
2013-03-31 21:28:00,42.1,-10.6,29.54,SSW,203,0.7,5.1,7,0.02,,,0.04,WUHU216HW,2013-04-01 01:28:00,
2013-03-31 21:29:00,42.1,-10.6,29.54,SSW,203,0.7,5.1,7,0.02,,,0.04,WUHU216HW,2013-04-01 01:29:00,
2013-03-31 21:33:00,42.1,-10.6,29.54,SSW,203,0.7,5.1,10,0.02,,,0.04,WUHU216HW,2013-04-01 01:33:00,
2013-03-31 21:34:00,42.1,-10.6,29.54,SSW,203,1.1,5.1,10,0.02,,,0.04,WUHU216HW,2013-04-01 01:34:00,
2013-03-31 21:35:00,42.1,-10.6,29.54,SSW,203,0.4,5.1,10,0.02,,,0.04,WUHU216HW,2013-04-01 01:35:00,
2013-03-31 21:38:00,42.1,-7.6,29.54,SSW,203,0.7,2.5,12,0.02,,,0.04,WUHU216HW,2013-04-01 01:38:00,
2013-03-31 21:39:00,41.9,-7.8,29.54,SSW,203,1.1,2.5,12,0.02,,,0.04,WUHU216HW,2013-04-01 01:39:00,
2013-03-31 21:40:00,41.9,-7.8,29.54,SSW,203,0.7,2.0,12,0.02,,,0.04,WUHU216HW,2013-04-01 01:40:00,
2013-03-31 21:44:00,41.8,-10.8,29.54,SSW,203,0.0,1.1,9,0.01,,,0.04,WUHU216HW,2013-04-01 01:44:00,
2013-03-31 21:45:00,41.8,-10.8,29.54,SSW,203,0.0,1.1,6,0.01,,,0.04,WUHU216HW,2013-04-01 01:45:00,
2013-03-31 21:49:00,41.8,-10.8,29.54,SSW,203,0.0,1.1,1,0.01,,,0.04,WUHU216HW,2013-04-01 01:49:00,
2013-03-31 21:50:00,41.8,-10.8,29.54,SSW,203,0.4,1.1,1,0.01,,,0.04,WUHU216HW,2013-04-01 01:50:00,
2013-03-31 21:54:00,41.6,-11.0,29.54,SSW,203,0.0,1.1,1,0.01,,,0.04,WUHU216HW,2013-04-01 01:54:00,
2013-03-31 21:55:00,41.6,-11.0,29.54,SSW,203,0.4,1.1,1,0.01,,,0.04,WUHU216HW,2013-04-01 01:55:00,
2013-03-31 21:59:00,41.4,-11.1,29.54,SSW,203,1.3,1.3,1,0.01,,,0.04,WUHU216HW,2013-04-01 01:59:00,
2013-03-31 22:00:00,41.4,-11.1,29.54,SSW,203,0.4,1.3,1,0.01,,,0.04,WUHU216HW,2013-04-01 02:00:00,
2013-03-31 22:04:00,41.4,-11.1,29.54,SSW,203,0.0,1.3,1,0.02,,,0.05,WUHU216HW,2013-04-01 02:04:00,
2013-03-31 22:05:00,41.4,-11.1,29.54,SSW,203,0.0,1.3,1,0.02,,,0.05,WUHU216HW,2013-04-01 02:05:00,
2013-03-31 22:09:00,41.2,-11.2,29.54,SSW,203,0.0,1.1,3,0.01,,,0.05,WUHU216HW,2013-04-01 02:09:00,
2013-03-31 22:10:00,41.2,-11.2,29.54,SSW,203,0.0,0.4,3,0.01,,,0.05,WUHU216HW,2013-04-01 02:10:00,
2013-03-31 22:14:00,41.0,-11.3,29.53,SSW,203,0.0,0.2,5,0.01,,,0.05,WUHU216HW,2013-04-01 02:14:00,
2013-03-31 22:15:00,41.0,-11.3,29.54,SSW,203,0.0,0.2,5,0.01,,,0.05,WUHU216HW,2013-04-01 02:15:00,
2013-03-31 22:19:00,41.0,-11.3,29.53,SSW,203,0.0,0.2,3,0.01,,,0.05,WUHU216HW,2013-04-01 02:19:00,
2013-03-31 22:20:00,40.9,-11.5,29.53,SSW,203,0.0,0.2,3,0.01,,,0.05,WUHU216HW,2013-04-01 02:20:00,
2013-03-31 22:24:00,40.9,-11.5,29.53,SSW,203,0.7,0.7,1,0.02,,,0.05,WUHU216HW,2013-04-01 02:24:00,
2013-03-31 22:25:00,40.9,-11.5,29.53,SSW,203,0.4,0.7,1,0.02,,,0.05,WUHU216HW,2013-04-01 02:25:00,
2013-03-31 22:26:00,40.9,-11.5,29.53,SSW,203,0.2,0.7,1,0.02,,,0.05,WUHU216HW,2013-04-01 02:26:00,
2013-03-31 22:29:00,40.7,-11.6,29.53,SSW,203,0.0,0.7,1,0.02,,,0.05,WUHU216HW,2013-04-01 02:29:00,
2013-03-31 22:30:00,40.7,-11.6,29.53,SSW,203,0.2,0.7,1,0.02,,,0.05,WUHU216HW,2013-04-01 02:30:00,
2013-03-31 22:31:00,40.7,-11.6,29.53,SSW,203,0.0,0.7,1,0.02,,,0.05,WUHU216HW,2013-04-01 02:31:00,
2013-03-31 22:34:00,40.7,-11.6,29.53,SSW,203,0.4,0.7,1,0.02,,,0.05,WUHU216HW,2013-04-01 02:34:00,
2013-03-31 22:35:00,40.7,-11.6,29.53,SSW,203,0.0,0.7,1,0.02,,,0.05,WUHU216HW,2013-04-01 02:35:00,
2013-03-31 22:36:00,40.7,-11.6,29.53,SSW,203,0.4,0.7,1,0.02,,,0.05,WUHU216HW,2013-04-01 02:36:00,
2013-03-31 22:39:00,40.5,-11.8,29.53,SSW,203,0.0,0.7,1,0.02,,,0.05,WUHU216HW,2013-04-01 02:39:00,
2013-03-31 22:40:00,40.5,-11.8,29.53,SSW,203,0.0,0.7,1,0.02,,,0.05,WUHU216HW,2013-04-01 02:40:00,
2013-03-31 22:41:00,40.5,-11.8,29.53,SSW,203,0.0,0.7,1,0.02,,,0.05,WUHU216HW,2013-04-01 02:41:00,
2013-03-31 22:44:00,40.3,-11.9,29.53,SSW,203,0.0,0.7,1,0.02,,,0.05,WUHU216HW,2013-04-01 02:44:00,
2013-03-31 22:45:00,40.3,-11.9,29.53,SSW,203,0.0,0.7,1,0.02,,,0.05,WUHU216HW,2013-04-01 02:45:00,
2013-03-31 22:46:00,40.3,-11.9,29.53,SSW,203,0.0,0.7,1,0.02,,,0.05,WUHU216HW,2013-04-01 02:46:00,
2013-03-31 22:49:00,40.3,-11.9,29.53,SSW,203,0.0,0.2,1,0.02,,,0.05,WUHU216HW,2013-04-01 02:49:00,
2013-03-31 22:50:00,40.3,-11.9,29.53,SSW,203,0.0,0.2,1,0.02,,,0.05,WUHU216HW,2013-04-01 02:50:00,
2013-03-31 22:51:00,40.3,-11.9,29.52,SSW,203,0.0,0.2,1,0.02,,,0.05,WUHU216HW,2013-04-01 02:51:00,
2013-03-31 22:52:00,40.3,-11.9,29.52,SSW,203,0.0,0.2,1,0.02,,,0.05,WUHU216HW,2013-04-01 02:52:00,
2013-03-31 22:55:00,40.1,-12.1,29.52,SSW,203,0.4,0.4,1,0.02,,,0.05,WUHU216HW,2013-04-01 02:55:00,
2013-03-31 22:57:00,40.1,-12.1,29.52,SSW,203,0.0,0.4,1,0.02,,,0.05,WUHU216HW,2013-04-01 02:57:00,
2013-03-31 23:00:00,40.1,-12.1,29.52,SSW,203,0.0,0.4,1,0.01,,,0.05,WUHU216HW,2013-04-01 03:00:00,
2013-03-31 23:02:00,40.0,-12.2,29.52,SSW,203,0.4,0.7,1,0.01,,,0.05,WUHU216HW,2013-04-01 03:02:00,
2013-03-31 23:05:00,40.0,-12.2,29.51,SSW,203,0.0,0.7,1,0.01,,,0.05,WUHU216HW,2013-04-01 03:05:00,
2013-03-31 23:06:00,40.0,-12.2,29.51,SSW,203,0.0,0.7,1,0.01,,,0.05,WUHU216HW,2013-04-01 03:06:00,
2013-03-31 23:07:00,40.0,-12.2,29.51,SSW,203,0.0,0.7,1,0.01,,,0.05,WUHU216HW,2013-04-01 03:07:00,
2013-03-31 23:10:00,40.0,-12.2,29.51,SSW,203,0.0,0.7,1,0.01,,,0.05,WUHU216HW,2013-04-01 03:10:00,
2013-03-31 23:11:00,40.0,-12.2,29.51,SSW,203,0.0,0.7,1,0.01,,,0.05,WUHU216HW,2013-04-01 03:11:00,
2013-03-31 23:12:00,40.0,-12.2,29.51,SSW,203,0.0,0.4,1,0.01,,,0.05,WUHU216HW,2013-04-01 03:12:00,
2013-03-31 23:15:00,40.0,-12.2,29.50,SSW,203,0.4,0.7,1,0.01,,,0.05,WUHU216HW,2013-04-01 03:15:00,
2013-03-31 23:17:00,40.0,-12.2,29.50,SSW,203,0.2,0.7,1,0.01,,,0.05,WUHU216HW,2013-04-01 03:17:00,
2013-03-31 23:18:00,40.0,-12.2,29.50,SSW,203,0.4,0.7,1,0.01,,,0.05,WUHU216HW,2013-04-01 03:18:00,
2013-03-31 23:20:00,40.0,-12.2,29.50,SSW,203,0.9,0.9,1,0.00,,,0.05,WUHU216HW,2013-04-01 03:20:00,
2013-03-31 23:22:00,40.0,-12.2,29.50,SSW,203,0.4,0.9,1,0.00,,,0.05,WUHU216HW,2013-04-01 03:22:00,
2013-03-31 23:23:00,40.0,-12.2,29.50,SSW,203,0.4,0.9,1,0.00,,,0.05,WUHU216HW,2013-04-01 03:23:00,
2013-03-31 23:26:00,40.0,-12.2,29.50,WSW,248,0.0,1.3,1,0.01,,,0.07,WUHU216HW,2013-04-01 03:26:00,
2013-03-31 23:27:00,40.0,-12.2,29.50,WSW,248,0.0,1.3,1,0.01,,,0.07,WUHU216HW,2013-04-01 03:27:00,
2013-03-31 23:28:00,40.0,-12.2,29.50,WSW,248,0.0,1.3,1,0.01,,,0.07,WUHU216HW,2013-04-01 03:28:00,
2013-03-31 23:31:00,39.8,-12.3,29.50,WSW,248,0.0,1.3,1,0.01,,,0.07,WUHU216HW,2013-04-01 03:31:00,
2013-03-31 23:32:00,39.8,-12.3,29.50,WSW,248,0.0,1.3,1,0.01,,,0.07,WUHU216HW,2013-04-01 03:32:00,
2013-03-31 23:33:00,39.8,-12.3,29.50,WSW,248,0.0,1.3,1,0.01,,,0.07,WUHU216HW,2013-04-01 03:33:00,
2013-03-31 23:34:00,40.0,-12.2,29.49,WSW,248,0.2,0.7,1,0.01,,,0.07,WUHU216HW,2013-04-01 03:34:00,
2013-03-31 23:37:00,39.8,-12.3,29.49,WSW,248,0.4,0.9,1,0.01,,,0.07,WUHU216HW,2013-04-01 03:37:00,
2013-03-31 23:38:00,39.8,-12.3,29.49,WSW,248,0.0,0.9,1,0.01,,,0.07,WUHU216HW,2013-04-01 03:38:00,
2013-03-31 23:39:00,39.8,-12.3,29.49,WSW,248,0.0,0.9,1,0.01,,,0.07,WUHU216HW,2013-04-01 03:39:00,
2013-03-31 23:42:00,39.8,-12.3,29.49,WSW,248,0.0,0.9,1,0.01,,,0.07,WUHU216HW,2013-04-01 03:42:00,
2013-03-31 23:43:00,39.6,-12.5,29.49,WSW,248,0.0,0.9,1,0.01,,,0.07,WUHU216HW,2013-04-01 03:43:00,
2013-03-31 23:44:00,39.6,-12.5,29.49,WSW,248,0.4,0.9,1,0.01,,,0.07,WUHU216HW,2013-04-01 03:44:00,
2013-03-31 23:47:00,39.6,-12.5,29.49,WSW,248,0.2,0.9,1,0.01,,,0.07,WUHU216HW,2013-04-01 03:47:00,
2013-03-31 23:48:00,39.6,-12.5,29.49,WSW,248,0.0,0.9,1,0.01,,,0.07,WUHU216HW,2013-04-01 03:48:00,
2013-03-31 23:50:00,39.6,-12.5,29.49,WSW,248,0.2,0.9,1,0.01,,,0.07,WUHU216HW,2013-04-01 03:50:00,
2013-03-31 23:52:00,39.6,-12.5,29.49,WSW,248,0.7,0.7,1,0.01,,,0.07,WUHU216HW,2013-04-01 03:52:00,
2013-03-31 23:53:00,39.6,-12.5,29.49,WSW,248,0.7,0.7,1,0.01,,,0.07,WUHU216HW,2013-04-01 03:53:00,
2013-03-31 23:55:00,39.6,-12.5,29.49,WSW,248,0.7,1.1,1,0.01,,,0.07,WUHU216HW,2013-04-01 03:55:00,
2013-03-31 23:57:00,39.6,-12.5,29.49,WSW,248,0.2,1.1,1,0.01,,,0.07,WUHU216HW,2013-04-01 03:57:00,
2013-03-31 23:58:00,39.6,-12.5,29.49,WSW,248,0.0,1.1,1,0.01,,,0.07,WUHU216HW,2013-04-01 03:58:00,